createdAt,value
2019-02-05T00:00:45.121Z,2.50
2019-02-05T00:03:16.606Z,2.47
2019-02-05T00:05:46.086Z,2.70
2019-02-05T00:08:15.626Z,2.50
2019-02-05T00:10:44.653Z,2.50
2019-02-05T00:13:13.976Z,2.60
2019-02-05T00:15:43.179Z,2.77
2019-02-05T00:18:12.170Z,2.73
2019-02-05T00:20:41.215Z,2.60
2019-02-05T00:23:10.639Z,2.67
2019-02-05T00:25:39.678Z,2.40
2019-02-05T00:28:09.115Z,2.60
2019-02-05T00:30:38.131Z,2.47
2019-02-05T00:33:07.170Z,2.50
2019-02-05T00:35:36.281Z,2.40
2019-02-05T00:38:05.332Z,2.20
2019-02-05T00:40:34.489Z,2.17
2019-02-05T00:43:04.039Z,2.70
2019-02-05T00:45:33.282Z,2.30
2019-02-05T00:48:02.372Z,2.63
2019-02-05T00:50:31.382Z,2.40
2019-02-05T00:53:00.470Z,2.90
2019-02-05T00:55:29.543Z,2.20
2019-02-05T00:57:59.293Z,2.70
2019-02-05T01:00:29.745Z,2.33
2019-02-05T01:02:58.924Z,2.70
2019-02-05T01:05:28.647Z,3.00
2019-02-05T01:07:58.229Z,2.57
2019-02-05T01:10:27.286Z,2.73
2019-02-05T01:12:56.839Z,2.57
2019-02-05T01:15:26.080Z,2.40
2019-02-05T01:17:55.110Z,2.73
2019-02-05T01:20:24.252Z,2.60
2019-02-05T01:22:53.362Z,2.70
2019-02-05T01:25:22.482Z,2.70
2019-02-05T01:27:52.046Z,2.70
2019-02-05T01:30:23.315Z,3.00
2019-02-05T01:32:52.412Z,2.70
2019-02-05T01:35:21.418Z,2.93
2019-02-05T01:37:50.934Z,2.20
2019-02-05T01:40:21.366Z,3.10
2019-02-05T01:42:50.483Z,3.50
2019-02-05T01:45:22.311Z,2.83
2019-02-05T01:47:51.379Z,3.60
2019-02-05T01:50:22.574Z,3.17
2019-02-05T01:52:51.694Z,3.30
2019-02-05T01:55:21.263Z,2.80
2019-02-05T01:57:50.336Z,3.00
2019-02-05T02:00:22.007Z,2.70
2019-02-05T02:02:51.189Z,3.30
2019-02-05T02:05:20.738Z,3.47
2019-02-05T02:07:50.922Z,3.47
2019-02-05T02:10:22.182Z,2.73
2019-02-05T02:12:51.339Z,2.90
2019-02-05T02:15:20.444Z,2.80
2019-02-05T02:17:49.439Z,3.00
2019-02-05T02:20:18.826Z,3.50
2019-02-05T02:22:47.944Z,3.60
2019-02-05T02:25:17.617Z,3.40
2019-02-05T02:27:46.785Z,3.27
2019-02-05T02:30:25.398Z,3.70
2019-02-05T02:32:54.379Z,3.50
2019-02-05T02:35:23.451Z,3.67
2019-02-05T02:37:53.186Z,3.67
2019-02-05T02:40:22.262Z,4.00
2019-02-05T02:42:51.327Z,3.43
2019-02-05T02:45:20.860Z,3.87
2019-02-05T02:47:50.004Z,2.70
2019-02-05T02:50:19.236Z,3.63
2019-02-05T02:52:48.722Z,4.10
2019-02-05T02:55:17.884Z,3.70
2019-02-05T02:57:46.942Z,4.13
2019-02-05T03:00:18.408Z,3.83
2019-02-05T03:02:47.617Z,4.27
2019-02-05T03:05:18.582Z,3.60
2019-02-05T03:07:49.126Z,3.50
2019-02-05T03:10:20.317Z,4.30
2019-02-05T03:12:49.571Z,3.77
2019-02-05T03:15:18.813Z,3.90
2019-02-05T03:17:47.901Z,4.13
2019-02-05T03:20:17.695Z,3.93
2019-02-05T03:22:47.021Z,4.07
2019-02-05T03:25:18.470Z,4.20
2019-02-05T03:27:47.681Z,4.33
2019-02-05T03:30:19.332Z,4.50
2019-02-05T03:32:48.495Z,3.87
2019-02-05T03:35:17.895Z,4.80
2019-02-05T03:37:47.330Z,4.20
2019-02-05T03:41:07.974Z,4.70
2019-02-05T03:43:39.071Z,4.90
2019-02-05T03:46:17.713Z,5.20
2019-02-05T03:48:48.793Z,4.23
2019-02-05T03:51:41.203Z,4.83
2019-02-05T03:54:35.104Z,4.67
2019-02-05T03:57:52.476Z,5.07
2019-02-05T04:01:12.225Z,5.50
2019-02-05T04:04:12.445Z,4.97
2019-02-05T04:07:14.200Z,4.93
2019-02-05T04:10:34.663Z,4.80
2019-02-05T04:13:49.516Z,5.40
2019-02-05T04:16:58.077Z,5.13
2019-02-05T04:19:47.737Z,5.10
2019-02-05T04:23:02.591Z,5.47
2019-02-05T04:25:47.176Z,5.40
2019-02-05T04:28:55.668Z,4.90
2019-02-05T04:31:36.913Z,5.73
2019-02-05T04:35:14.708Z,4.80
2019-02-05T04:38:17.863Z,5.53
2019-02-05T04:41:23.173Z,4.90
2019-02-05T04:44:04.697Z,5.33
2019-02-05T04:47:05.494Z,5.47
2019-02-05T04:50:21.331Z,5.70
2019-02-05T04:53:23.455Z,5.67
2019-02-05T04:56:09.748Z,5.50
2019-02-05T04:59:29.777Z,5.63
2019-02-05T05:02:54.858Z,6.50
2019-02-05T05:06:00.658Z,8.27
2019-02-05T05:09:17.974Z,7.27
2019-02-05T05:11:50.852Z,7.07
2019-02-05T05:14:21.024Z,7.53
2019-02-05T05:16:51.262Z,6.67
2019-02-05T05:19:21.541Z,6.07
2019-02-05T05:21:51.339Z,6.00
2019-02-05T05:24:20.885Z,6.80
2019-02-05T05:26:50.765Z,6.03
2019-02-05T05:29:20.521Z,6.57
2019-02-05T05:31:50.109Z,6.17
2019-02-05T05:34:19.660Z,7.00
2019-02-05T05:36:51.028Z,6.50
2019-02-05T05:39:23.968Z,7.00
2019-02-05T05:41:53.722Z,7.67
2019-02-05T05:44:23.057Z,7.30
2019-02-05T05:46:52.858Z,6.77
2019-02-05T05:49:25.455Z,6.43
2019-02-05T05:51:56.134Z,6.43
2019-02-05T05:54:25.713Z,6.77
2019-02-05T05:56:55.183Z,7.00
2019-02-05T05:59:24.489Z,6.57
2019-02-05T06:01:53.793Z,6.87
2019-02-05T06:04:23.595Z,6.97
2019-02-05T06:06:52.844Z,7.27
2019-02-05T06:09:22.504Z,6.70
2019-02-05T06:11:52.422Z,6.43
2019-02-05T06:14:24.710Z,6.27
2019-02-05T06:16:53.867Z,6.40
2019-02-05T06:19:23.459Z,6.83
2019-02-05T06:21:52.660Z,7.00
2019-02-05T06:24:22.119Z,6.73
2019-02-05T06:26:51.439Z,6.30
2019-02-05T06:29:21.835Z,6.63
2019-02-05T06:31:51.005Z,7.63
2019-02-05T06:34:20.302Z,6.63
2019-02-05T06:36:49.683Z,7.50
2019-02-05T06:39:18.922Z,6.73
2019-02-05T06:41:48.317Z,6.70
2019-02-05T06:44:17.988Z,7.13
2019-02-05T06:46:47.271Z,6.50
2019-02-05T06:49:16.439Z,6.97
2019-02-05T06:51:49.331Z,7.10
2019-02-05T06:54:18.648Z,6.27
2019-02-05T06:56:48.004Z,6.50
2019-02-05T06:59:17.401Z,6.40
2019-02-05T07:01:46.694Z,6.23
2019-02-05T07:04:16.097Z,5.70
2019-02-05T07:06:46.100Z,7.20
2019-02-05T07:09:16.214Z,7.37
2019-02-05T07:11:45.703Z,7.13
2019-02-05T07:14:17.567Z,6.60
2019-02-05T07:16:47.274Z,6.77
2019-02-05T07:19:22.589Z,6.90
2019-02-05T07:21:52.010Z,6.70
2019-02-05T07:24:21.393Z,7.33
2019-02-05T07:26:51.179Z,6.50
2019-02-05T07:29:21.019Z,6.90
2019-02-05T07:32:09.568Z,7.83
2019-02-05T07:34:39.306Z,6.53
2019-02-05T07:37:09.119Z,6.97
2019-02-05T07:39:39.520Z,7.33
2019-02-05T07:42:11.678Z,6.70
2019-02-05T07:44:40.976Z,7.07
2019-02-05T07:47:10.760Z,7.07
2019-02-05T07:49:40.715Z,7.00
2019-02-05T07:52:10.306Z,6.77
2019-02-05T07:54:39.859Z,6.40
2019-02-05T07:57:09.132Z,6.87
2019-02-05T07:59:38.459Z,7.30
2019-02-05T08:02:08.165Z,6.77
2019-02-05T08:04:37.552Z,6.53
2019-02-05T08:07:09.319Z,6.60
2019-02-05T08:09:39.231Z,7.47
2019-02-05T08:12:08.916Z,9.13
2019-02-05T08:14:38.558Z,8.40
2019-02-05T08:17:08.835Z,8.40
2019-02-05T08:19:40.122Z,7.30
2019-02-05T08:22:09.718Z,7.43
2019-02-05T08:24:39.489Z,6.67
2019-02-05T08:27:09.040Z,6.70
2019-02-05T08:29:38.552Z,6.30
2019-02-05T08:32:08.685Z,5.80
2019-02-05T08:34:41.563Z,6.47
2019-02-05T08:37:11.469Z,5.70
2019-02-05T08:39:42.165Z,5.73
2019-02-05T08:42:11.820Z,5.53
2019-02-05T08:44:41.052Z,5.53
2019-02-05T08:47:10.935Z,6.40
2019-02-05T08:49:40.122Z,5.17
2019-02-05T08:52:09.411Z,5.50
2019-02-05T08:54:39.236Z,5.70
2019-02-05T08:57:08.604Z,5.53
2019-02-05T08:59:37.824Z,5.77
2019-02-05T09:02:07.324Z,4.93
2019-02-05T09:04:36.484Z,5.00
2019-02-05T09:07:05.730Z,5.07
2019-02-05T09:09:35.226Z,5.40
2019-02-05T09:12:04.966Z,5.57
2019-02-05T09:14:34.153Z,5.17
2019-02-05T09:17:03.750Z,5.87
2019-02-05T09:19:33.006Z,4.80
2019-02-05T09:22:02.165Z,5.50
2019-02-05T09:24:31.367Z,5.50
2019-02-05T09:27:00.619Z,5.30
2019-02-05T09:29:33.398Z,5.73
2019-02-05T09:32:00.927Z,5.40
2019-02-05T09:34:30.552Z,4.93
2019-02-05T09:37:00.116Z,4.77
2019-02-05T09:39:30.310Z,5.40
2019-02-05T09:41:59.913Z,4.33
2019-02-05T09:44:31.530Z,5.50
2019-02-05T09:47:01.337Z,4.40
2019-02-05T09:49:30.586Z,4.83
2019-02-05T09:51:59.807Z,5.40
2019-02-05T09:54:29.138Z,5.03
2019-02-05T09:56:58.383Z,4.53
2019-02-05T09:59:28.187Z,4.97
2019-02-05T10:01:57.446Z,4.53
2019-02-05T10:04:26.864Z,4.73
2019-02-05T10:06:56.160Z,4.60
2019-02-05T10:09:25.733Z,4.27
2019-02-05T10:11:54.912Z,4.30
2019-02-05T10:14:24.168Z,4.90
2019-02-05T10:16:54.723Z,5.47
2019-02-05T10:19:24.059Z,4.70
2019-02-05T10:21:53.298Z,5.53
2019-02-05T10:24:22.670Z,4.63
2019-02-05T10:26:51.851Z,4.80
2019-02-05T10:29:21.013Z,4.80
2019-02-05T10:31:50.409Z,5.40
2019-02-05T10:34:20.417Z,5.37
2019-02-05T10:37:01.378Z,5.37
2019-02-05T10:39:34.204Z,4.47
2019-02-05T10:42:03.485Z,5.00
2019-02-05T10:44:32.955Z,5.03
2019-02-05T10:47:02.451Z,5.70
2019-02-05T10:49:31.699Z,5.57
2019-02-05T10:52:01.745Z,5.27
2019-02-05T10:54:31.068Z,5.40
2019-02-05T10:57:00.504Z,5.17
2019-02-05T10:59:29.876Z,5.90
2019-02-05T11:01:59.567Z,5.77
2019-02-05T11:04:28.984Z,6.17
2019-02-05T11:06:59.000Z,6.17
2019-02-05T11:09:29.446Z,5.47
2019-02-05T11:11:59.196Z,5.60
2019-02-05T11:14:28.792Z,5.07
2019-02-05T11:16:58.776Z,5.37
2019-02-05T11:19:28.264Z,5.57
2019-02-05T11:21:57.694Z,5.07
2019-02-05T11:24:27.044Z,6.17
2019-02-05T11:26:56.507Z,5.00
2019-02-05T11:29:26.560Z,5.50
2019-02-05T11:31:55.949Z,5.33
2019-02-05T11:34:26.010Z,4.90
2019-02-05T11:36:56.027Z,4.97
2019-02-05T11:39:26.564Z,5.30
2019-02-05T11:41:55.762Z,4.83
2019-02-05T11:44:25.233Z,5.03
2019-02-05T11:46:55.121Z,5.37
2019-02-05T11:49:24.805Z,4.40
2019-02-05T11:51:54.301Z,4.93
2019-02-05T11:54:23.585Z,4.77
2019-02-05T11:56:52.922Z,5.10
2019-02-05T11:59:22.447Z,4.80
2019-02-05T12:01:52.558Z,4.67
2019-02-05T12:04:21.874Z,4.87
2019-02-05T12:06:54.055Z,5.17
2019-02-05T12:09:26.299Z,4.37
2019-02-05T12:11:55.500Z,5.07
2019-02-05T12:14:24.908Z,4.27
2019-02-05T12:16:54.776Z,4.67
2019-02-05T12:19:24.124Z,5.07
2019-02-05T12:21:53.981Z,4.87
2019-02-05T12:24:23.353Z,4.50
2019-02-05T12:26:52.587Z,4.73
2019-02-05T12:29:22.024Z,4.90
2019-02-05T12:31:51.470Z,4.70
2019-02-05T12:34:20.688Z,4.83
2019-02-05T12:36:49.973Z,4.87
2019-02-05T12:39:20.714Z,4.67
2019-02-05T12:41:50.507Z,4.97
2019-02-05T12:44:19.804Z,3.93
2019-02-05T12:46:49.435Z,4.60
2019-02-05T12:49:18.872Z,4.70
2019-02-05T12:51:48.510Z,4.80
2019-02-05T12:54:18.062Z,5.10
2019-02-05T12:56:50.100Z,5.00
2019-02-05T12:59:19.473Z,5.23
2019-02-05T13:01:50.012Z,4.67
2019-02-05T13:04:19.235Z,4.97
2019-02-05T13:06:48.602Z,5.10
2019-02-05T13:09:18.572Z,4.00
2019-02-05T13:11:47.923Z,4.50
2019-02-05T13:14:17.470Z,4.53
2019-02-05T13:16:47.031Z,4.63
2019-02-05T13:19:16.204Z,4.77
2019-02-05T13:21:45.501Z,4.27
2019-02-05T13:24:16.669Z,4.37
2019-02-05T13:26:45.760Z,4.10
2019-02-05T13:29:15.056Z,4.40
2019-02-05T13:31:44.623Z,5.20
2019-02-05T13:34:14.013Z,4.33
2019-02-05T13:36:43.581Z,4.43
2019-02-05T13:39:14.231Z,4.93
2019-02-05T13:41:43.689Z,4.63
2019-02-05T13:44:13.482Z,4.80
2019-02-05T13:46:43.203Z,4.17
2019-02-05T13:49:12.464Z,4.30
2019-02-05T13:51:42.781Z,4.40
2019-02-05T13:54:12.661Z,4.57
2019-02-05T13:56:41.960Z,4.87
2019-02-05T13:59:11.167Z,5.10
2019-02-05T14:01:40.659Z,4.67
2019-02-05T14:04:10.077Z,4.87
2019-02-05T14:06:39.458Z,4.30
2019-02-05T14:09:13.223Z,4.60
2019-02-05T14:11:42.435Z,4.23
2019-02-05T14:14:11.614Z,4.93
2019-02-05T14:16:40.874Z,5.20
2019-02-05T14:19:10.111Z,4.70
2019-02-05T14:21:39.473Z,4.37
2019-02-05T14:24:08.587Z,4.67
2019-02-05T14:26:37.747Z,5.10
2019-02-05T14:29:06.896Z,4.97
2019-02-05T14:31:36.148Z,5.37
2019-02-05T14:34:05.319Z,5.03
2019-02-05T14:36:34.484Z,5.13
2019-02-05T14:39:05.770Z,5.17
2019-02-05T14:41:35.130Z,4.93
2019-02-05T14:44:05.105Z,4.53
2019-02-05T14:46:34.613Z,5.20
2019-02-05T14:49:03.711Z,4.83
2019-02-05T14:51:32.864Z,4.67
2019-02-05T14:54:02.088Z,5.53
2019-02-05T14:56:31.305Z,5.27
2019-02-05T14:59:00.364Z,4.53
2019-02-05T15:01:29.612Z,4.77
2019-02-05T15:03:58.696Z,4.70
2019-02-05T15:06:27.791Z,4.77
2019-02-05T15:08:58.190Z,4.73
2019-02-05T15:11:27.375Z,4.77
2019-02-05T15:13:56.489Z,5.30
2019-02-05T15:16:26.214Z,5.10
2019-02-05T15:18:59.492Z,5.17
2019-02-05T15:21:28.907Z,4.87
2019-02-05T15:23:58.078Z,5.57
2019-02-05T15:26:30.398Z,4.90
2019-02-05T15:29:00.032Z,5.37
2019-02-05T15:31:29.487Z,5.23
2019-02-05T15:34:20.728Z,5.37
2019-02-05T15:36:50.909Z,5.07
2019-02-05T15:39:20.279Z,5.53
2019-02-05T15:41:49.591Z,5.10
2019-02-05T15:44:19.955Z,5.20
2019-02-05T15:46:49.035Z,4.90
2019-02-05T15:49:18.057Z,5.17
2019-02-05T15:51:47.430Z,5.97
2019-02-05T15:54:16.619Z,5.90
2019-02-05T15:56:45.797Z,5.53
2019-02-05T15:59:15.160Z,5.83
2019-02-05T16:01:44.952Z,5.70
2019-02-05T16:04:14.129Z,6.47
2019-02-05T16:06:44.031Z,5.97
2019-02-05T16:09:13.515Z,6.00
2019-02-05T16:11:42.680Z,5.80
2019-02-05T16:14:12.550Z,6.07
2019-02-05T16:16:41.809Z,6.43
2019-02-05T16:19:10.964Z,6.90
2019-02-05T16:21:40.149Z,6.40
2019-02-05T16:24:09.538Z,6.40
2019-02-05T16:26:38.807Z,5.63
2019-02-05T16:29:08.357Z,6.60
2019-02-05T16:31:37.521Z,6.23
2019-02-05T16:34:06.753Z,6.33
2019-02-05T16:36:36.667Z,6.20
2019-02-05T16:39:09.460Z,6.40
2019-02-05T16:41:38.968Z,6.40
2019-02-05T16:44:09.268Z,7.10
2019-02-05T16:46:38.434Z,6.70
2019-02-05T16:49:07.653Z,6.97
2019-02-05T16:51:37.048Z,6.73
2019-02-05T16:54:06.568Z,7.10
2019-02-05T16:56:35.624Z,6.60
2019-02-05T16:59:04.907Z,6.80
2019-02-05T17:01:34.108Z,6.30
2019-02-05T17:04:03.263Z,6.63
2019-02-05T17:06:33.150Z,7.03
2019-02-05T17:09:02.375Z,6.70
2019-02-05T17:11:31.544Z,6.97
2019-02-05T17:14:01.049Z,7.17
2019-02-05T17:16:30.244Z,6.90
2019-02-05T17:18:59.530Z,6.67
2019-02-05T17:21:28.783Z,6.53
2019-02-05T17:23:57.876Z,6.87
2019-02-05T17:26:27.073Z,6.60
2019-02-05T17:28:56.259Z,7.07
2019-02-05T17:31:25.509Z,7.43
2019-02-05T17:33:54.711Z,7.50
2019-02-05T17:36:24.428Z,7.03
2019-02-05T17:38:53.588Z,6.60
2019-02-05T17:41:22.885Z,6.93
2019-02-05T17:43:53.571Z,7.27
2019-02-05T17:46:22.784Z,7.50
2019-02-05T17:48:51.996Z,6.70
2019-02-05T17:51:21.224Z,6.43
2019-02-05T17:53:50.488Z,6.27
2019-02-05T17:56:19.596Z,6.57
2019-02-05T17:58:49.367Z,6.70
2019-02-05T18:01:19.518Z,6.37
2019-02-05T18:03:48.681Z,6.97
2019-02-05T18:06:18.213Z,7.03
2019-02-05T18:08:47.387Z,6.33
2019-02-05T18:11:16.597Z,6.67
2019-02-05T18:13:46.145Z,5.83
2019-02-05T18:16:17.433Z,6.67
2019-02-05T18:18:46.631Z,6.63
2019-02-05T18:21:15.750Z,7.47
2019-02-05T18:23:44.949Z,6.30
2019-02-05T18:26:14.143Z,6.40
2019-02-05T18:28:43.233Z,6.53
2019-02-05T18:31:12.412Z,6.20
2019-02-05T18:33:41.611Z,5.97
2019-02-05T18:36:11.312Z,6.00
2019-02-05T18:38:40.738Z,5.80
2019-02-05T18:41:09.831Z,6.33
2019-02-05T18:43:39.643Z,5.67
2019-02-05T18:46:12.607Z,6.33
2019-02-05T18:48:40.471Z,6.23
2019-02-05T18:51:09.785Z,6.27
2019-02-05T18:53:38.965Z,6.37
2019-02-05T18:56:08.125Z,5.87
2019-02-05T18:58:37.603Z,5.77
2019-02-05T19:01:26.443Z,5.57
2019-02-05T19:03:55.563Z,5.67
2019-02-05T19:06:24.699Z,5.87
2019-02-05T19:08:55.015Z,5.63
2019-02-05T19:11:24.187Z,6.03
2019-02-05T19:13:53.343Z,6.17
2019-02-05T19:16:22.553Z,6.07
2019-02-05T19:18:51.748Z,6.30
2019-02-05T19:21:20.840Z,5.60
2019-02-05T19:23:52.549Z,5.90
2019-02-05T19:26:27.225Z,5.57
2019-02-05T19:28:56.843Z,5.20
2019-02-05T19:31:32.073Z,5.83
2019-02-05T19:34:01.235Z,4.73
2019-02-05T19:36:30.721Z,5.73
2019-02-05T19:38:59.899Z,5.97
2019-02-05T19:41:29.354Z,5.40
2019-02-05T19:43:58.537Z,5.00
2019-02-05T19:47:05.351Z,5.57
2019-02-05T19:49:39.464Z,5.00
2019-02-05T19:52:08.937Z,5.10
2019-02-05T19:54:38.177Z,5.10
2019-02-05T19:57:07.448Z,5.00
2019-02-05T19:59:37.737Z,4.60
2019-02-05T20:02:07.947Z,4.60
2019-02-05T20:04:37.048Z,5.37
2019-02-05T20:07:06.216Z,4.17
2019-02-05T20:09:35.855Z,4.03
2019-02-05T20:12:05.212Z,4.30
2019-02-05T20:14:34.299Z,3.70
2019-02-05T20:17:04.226Z,3.77
2019-02-05T20:19:33.319Z,3.93
2019-02-05T20:22:02.504Z,3.63
2019-02-05T20:24:31.704Z,3.40
2019-02-05T20:27:01.014Z,3.57
2019-02-05T20:29:30.168Z,3.43
2019-02-05T20:31:59.299Z,3.47
2019-02-05T20:34:28.485Z,3.20
2019-02-05T20:36:57.649Z,3.70
2019-02-05T20:39:27.372Z,3.60
2019-02-05T20:41:56.983Z,3.57
2019-02-05T20:44:26.156Z,3.87
2019-02-05T20:46:55.951Z,3.40
2019-02-05T20:49:25.561Z,3.23
2019-02-05T20:51:54.755Z,3.43
2019-02-05T20:54:24.056Z,3.40
2019-02-05T20:56:53.199Z,3.40
2019-02-05T20:59:22.360Z,3.67
2019-02-05T21:01:51.636Z,3.17
2019-02-05T21:04:21.623Z,3.57
2019-02-05T21:06:53.532Z,3.33
2019-02-05T21:09:25.344Z,3.17
2019-02-05T21:11:54.388Z,3.27
2019-02-05T21:14:23.571Z,3.00
2019-02-05T21:16:52.843Z,2.93
2019-02-05T21:19:22.454Z,3.23
2019-02-05T21:21:51.931Z,3.57
2019-02-05T21:24:21.184Z,3.20
2019-02-05T21:26:50.367Z,2.70
2019-02-05T21:29:19.538Z,3.30
2019-02-05T21:31:48.713Z,3.03
2019-02-05T21:34:17.801Z,3.10
2019-02-05T21:36:46.939Z,2.70
2019-02-05T21:39:16.372Z,3.30
2019-02-05T21:41:45.507Z,3.07
2019-02-05T21:44:14.651Z,3.00
2019-02-05T21:46:44.223Z,3.00
2019-02-05T21:49:13.375Z,3.03
2019-02-05T21:51:43.783Z,4.07
2019-02-05T21:54:13.246Z,3.00
2019-02-05T21:56:42.438Z,2.87
2019-02-05T21:59:11.584Z,2.77
2019-02-05T22:01:41.043Z,3.07
2019-02-05T22:04:10.986Z,2.80
2019-02-05T22:06:40.130Z,2.77
2019-02-05T22:09:12.063Z,3.13
2019-02-05T22:11:41.192Z,2.90
2019-02-05T22:14:10.295Z,2.73
2019-02-05T22:16:39.546Z,3.27
2019-02-05T22:19:09.124Z,3.10
2019-02-05T22:21:38.279Z,2.57
2019-02-05T22:24:07.491Z,2.57
2019-02-05T22:26:36.635Z,2.67
2019-02-05T22:29:06.459Z,3.20
2019-02-05T22:31:35.865Z,2.40
2019-02-05T22:34:05.312Z,3.00
2019-02-05T22:36:34.488Z,2.57
2019-02-05T22:39:05.192Z,2.60
2019-02-05T22:41:34.361Z,3.43
2019-02-05T22:44:03.528Z,3.00
2019-02-05T22:46:33.029Z,3.10
2019-02-05T22:49:02.159Z,2.60
2019-02-05T22:51:31.235Z,3.13
2019-02-05T22:54:00.411Z,2.93
2019-02-05T22:56:29.602Z,2.63
2019-02-05T22:58:59.082Z,3.20
2019-02-05T23:01:48.419Z,2.87
2019-02-05T23:04:50.776Z,2.53
2019-02-05T23:07:19.452Z,2.80
2019-02-05T23:10:13.754Z,2.87
2019-02-05T23:12:52.483Z,2.80
2019-02-05T23:15:23.313Z,3.10
2019-02-05T23:17:52.432Z,2.70
2019-02-05T23:20:24.498Z,2.63
2019-02-05T23:22:56.846Z,2.80
2019-02-05T23:25:24.555Z,2.90
2019-02-05T23:27:53.621Z,3.20
2019-02-05T23:30:27.369Z,2.57
2019-02-05T23:32:56.601Z,3.60
2019-02-05T23:35:26.384Z,3.13
2019-02-05T23:37:55.675Z,3.20
2019-02-05T23:40:24.646Z,3.00
2019-02-05T23:42:53.694Z,2.90
2019-02-05T23:45:23.376Z,2.97
2019-02-05T23:47:52.527Z,3.23
2019-02-05T23:50:22.211Z,3.37
2019-02-05T23:52:52.126Z,3.17
2019-02-05T23:55:21.231Z,3.00
2019-02-05T23:57:50.238Z,2.87
